sensor_id;sensor_type;location;lat;lon;timestamp;P1;durP1;ratioP1;P2;durP2;ratioP2
57401;SDS011;43226;51.110;6.998;2024-01-25T00:02:07;33.03;;;6.03;;
57401;SDS011;43226;51.110;6.998;2024-01-25T00:04:33;55.00;;;5.90;;
57401;SDS011;43226;51.110;6.998;2024-01-25T00:06:58;34.33;;;5.70;;
57401;SDS011;43226;51.110;6.998;2024-01-25T00:09:23;30.70;;;5.20;;
57401;SDS011;43226;51.110;6.998;2024-01-25T00:11:48;28.07;;;6.10;;
57401;SDS011;43226;51.110;6.998;2024-01-25T00:14:13;25.77;;;5.93;;
57401;SDS011;43226;51.110;6.998;2024-01-25T00:16:42;30.60;;;5.63;;
57401;SDS011;43226;51.110;6.998;2024-01-25T00:19:07;21.33;;;4.60;;
57401;SDS011;43226;51.110;6.998;2024-01-25T00:21:35;40.63;;;6.67;;
57401;SDS011;43226;51.110;6.998;2024-01-25T00:24:00;45.30;;;6.23;;
57401;SDS011;43226;51.110;6.998;2024-01-25T00:26:25;27.13;;;5.83;;
57401;SDS011;43226;51.110;6.998;2024-01-25T00:28:50;26.50;;;5.27;;
57401;SDS011;43226;51.110;6.998;2024-01-25T00:31:16;32.70;;;6.67;;
57401;SDS011;43226;51.110;6.998;2024-01-25T00:33:41;35.33;;;5.57;;
57401;SDS011;43226;51.110;6.998;2024-01-25T00:36:06;26.00;;;6.03;;
57401;SDS011;43226;51.110;6.998;2024-01-25T00:38:32;36.60;;;5.73;;
57401;SDS011;43226;51.110;6.998;2024-01-25T00:40:57;43.50;;;6.60;;
57401;SDS011;43226;51.110;6.998;2024-01-25T00:43:22;36.07;;;6.47;;
57401;SDS011;43226;51.110;6.998;2024-01-25T00:45:47;37.23;;;5.50;;
57401;SDS011;43226;51.110;6.998;2024-01-25T00:48:13;30.10;;;5.77;;
57401;SDS011;43226;51.110;6.998;2024-01-25T00:50:38;32.70;;;5.77;;
57401;SDS011;43226;51.110;6.998;2024-01-25T00:53:03;37.13;;;7.23;;
57401;SDS011;43226;51.110;6.998;2024-01-25T00:55:29;23.50;;;4.67;;
57401;SDS011;43226;51.110;6.998;2024-01-25T00:57:54;25.60;;;5.43;;
57401;SDS011;43226;51.110;6.998;2024-01-25T01:00:20;36.93;;;6.70;;
57401;SDS011;43226;51.110;6.998;2024-01-25T01:02:45;30.60;;;5.77;;
57401;SDS011;43226;51.110;6.998;2024-01-25T01:05:11;30.97;;;5.27;;
57401;SDS011;43226;51.110;6.998;2024-01-25T01:07:37;49.00;;;7.00;;
57401;SDS011;43226;51.110;6.998;2024-01-25T01:10:02;32.70;;;6.30;;
57401;SDS011;43226;51.110;6.998;2024-01-25T01:12:28;51.70;;;7.20;;
57401;SDS011;43226;51.110;6.998;2024-01-25T01:14:53;34.10;;;5.93;;
57401;SDS011;43226;51.110;6.998;2024-01-25T01:17:18;29.87;;;6.33;;
57401;SDS011;43226;51.110;6.998;2024-01-25T01:19:44;62.03;;;7.10;;
57401;SDS011;43226;51.110;6.998;2024-01-25T01:22:09;43.03;;;5.93;;
57401;SDS011;43226;51.110;6.998;2024-01-25T01:24:34;43.40;;;5.80;;
57401;SDS011;43226;51.110;6.998;2024-01-25T01:26:59;27.90;;;5.03;;
57401;SDS011;43226;51.110;6.998;2024-01-25T01:29:25;32.70;;;5.53;;
57401;SDS011;43226;51.110;6.998;2024-01-25T01:31:50;37.83;;;5.50;;
57401;SDS011;43226;51.110;6.998;2024-01-25T01:34:15;30.13;;;6.27;;
57401;SDS011;43226;51.110;6.998;2024-01-25T01:36:42;22.43;;;5.07;;
57401;SDS011;43226;51.110;6.998;2024-01-25T01:39:07;38.57;;;5.20;;
57401;SDS011;43226;51.110;6.998;2024-01-25T01:41:32;34.27;;;5.83;;
57401;SDS011;43226;51.110;6.998;2024-01-25T01:43:58;50.60;;;7.77;;
57401;SDS011;43226;51.110;6.998;2024-01-25T01:48:51;23.60;;;4.53;;
57401;SDS011;43226;51.110;6.998;2024-01-25T01:51:16;29.03;;;5.30;;
57401;SDS011;43226;51.110;6.998;2024-01-25T01:53:41;37.93;;;5.83;;
57401;SDS011;43226;51.110;6.998;2024-01-25T01:56:07;31.03;;;6.27;;
57401;SDS011;43226;51.110;6.998;2024-01-25T01:58:32;26.80;;;5.43;;
57401;SDS011;43226;51.110;6.998;2024-01-25T02:00:58;30.23;;;5.60;;
57401;SDS011;43226;51.110;6.998;2024-01-25T02:03:24;34.27;;;4.80;;
57401;SDS011;43226;51.110;6.998;2024-01-25T02:05:49;37.30;;;6.50;;
57401;SDS011;43226;51.110;6.998;2024-01-25T02:08:14;28.73;;;5.67;;
57401;SDS011;43226;51.110;6.998;2024-01-25T02:10:40;28.23;;;5.73;;
57401;SDS011;43226;51.110;6.998;2024-01-25T02:13:05;29.97;;;5.27;;
57401;SDS011;43226;51.110;6.998;2024-01-25T02:15:30;39.40;;;6.40;;
57401;SDS011;43226;51.110;6.998;2024-01-25T02:17:55;25.73;;;5.40;;
57401;SDS011;43226;51.110;6.998;2024-01-25T02:20:21;36.73;;;5.60;;
57401;SDS011;43226;51.110;6.998;2024-01-25T02:22:46;34.53;;;5.40;;
57401;SDS011;43226;51.110;6.998;2024-01-25T02:25:11;24.80;;;4.77;;
57401;SDS011;43226;51.110;6.998;2024-01-25T02:27:36;36.53;;;4.80;;
57401;SDS011;43226;51.110;6.998;2024-01-25T02:30:04;47.50;;;6.93;;
57401;SDS011;43226;51.110;6.998;2024-01-25T02:32:30;42.97;;;7.23;;
57401;SDS011;43226;51.110;6.998;2024-01-25T02:34:55;27.37;;;6.40;;
57401;SDS011;43226;51.110;6.998;2024-01-25T02:37:20;36.33;;;6.03;;
57401;SDS011;43226;51.110;6.998;2024-01-25T02:39:45;31.53;;;6.60;;
57401;SDS011;43226;51.110;6.998;2024-01-25T02:42:11;39.13;;;5.67;;
57401;SDS011;43226;51.110;6.998;2024-01-25T02:44:37;32.93;;;5.77;;
57401;SDS011;43226;51.110;6.998;2024-01-25T02:47:02;37.43;;;5.37;;
57401;SDS011;43226;51.110;6.998;2024-01-25T02:49:27;21.63;;;4.30;;
57401;SDS011;43226;51.110;6.998;2024-01-25T02:51:53;38.40;;;5.80;;
57401;SDS011;43226;51.110;6.998;2024-01-25T02:54:18;28.60;;;4.77;;
57401;SDS011;43226;51.110;6.998;2024-01-25T02:56:43;22.57;;;5.20;;
57401;SDS011;43226;51.110;6.998;2024-01-25T02:59:09;35.20;;;5.40;;
57401;SDS011;43226;51.110;6.998;2024-01-25T03:01:40;36.90;;;5.63;;
57401;SDS011;43226;51.110;6.998;2024-01-25T03:04:06;28.50;;;7.37;;
57401;SDS011;43226;51.110;6.998;2024-01-25T03:06:31;36.40;;;6.27;;
57401;SDS011;43226;51.110;6.998;2024-01-25T03:08:57;23.80;;;6.30;;
57401;SDS011;43226;51.110;6.998;2024-01-25T03:11:22;33.50;;;6.83;;
57401;SDS011;43226;51.110;6.998;2024-01-25T03:13:47;39.13;;;6.00;;
57401;SDS011;43226;51.110;6.998;2024-01-25T03:16:12;40.90;;;6.20;;
57401;SDS011;43226;51.110;6.998;2024-01-25T03:18:37;24.00;;;5.20;;
57401;SDS011;43226;51.110;6.998;2024-01-25T03:21:03;25.83;;;4.80;;
57401;SDS011;43226;51.110;6.998;2024-01-25T03:23:28;42.13;;;6.20;;
57401;SDS011;43226;51.110;6.998;2024-01-25T03:25:53;42.70;;;6.37;;
57401;SDS011;43226;51.110;6.998;2024-01-25T03:28:18;22.63;;;6.03;;
57401;SDS011;43226;51.110;6.998;2024-01-25T03:30:44;36.87;;;6.53;;
57401;SDS011;43226;51.110;6.998;2024-01-25T03:33:09;34.00;;;6.10;;
57401;SDS011;43226;51.110;6.998;2024-01-25T03:35:34;32.53;;;6.30;;
57401;SDS011;43226;51.110;6.998;2024-01-25T03:37:59;28.80;;;4.93;;
57401;SDS011;43226;51.110;6.998;2024-01-25T03:40:24;34.53;;;5.97;;
57401;SDS011;43226;51.110;6.998;2024-01-25T03:42:50;53.17;;;6.30;;
57401;SDS011;43226;51.110;6.998;2024-01-25T03:45:15;31.57;;;6.87;;
57401;SDS011;43226;51.110;6.998;2024-01-25T03:47:40;33.83;;;6.77;;
57401;SDS011;43226;51.110;6.998;2024-01-25T03:50:05;33.17;;;6.97;;
57401;SDS011;43226;51.110;6.998;2024-01-25T03:52:31;40.87;;;6.20;;
57401;SDS011;43226;51.110;6.998;2024-01-25T03:54:56;33.87;;;6.07;;
57401;SDS011;43226;51.110;6.998;2024-01-25T03:57:22;29.03;;;5.73;;
57401;SDS011;43226;51.110;6.998;2024-01-25T03:59:47;35.23;;;6.87;;
57401;SDS011;43226;51.110;6.998;2024-01-25T04:02:12;32.37;;;6.50;;
57401;SDS011;43226;51.110;6.998;2024-01-25T04:04:37;33.00;;;6.07;;
57401;SDS011;43226;51.110;6.998;2024-01-25T04:07:03;40.97;;;5.10;;
57401;SDS011;43226;51.110;6.998;2024-01-25T04:09:28;28.50;;;5.77;;
57401;SDS011;43226;51.110;6.998;2024-01-25T04:11:54;35.23;;;6.10;;
57401;SDS011;43226;51.110;6.998;2024-01-25T04:14:19;29.43;;;6.30;;
57401;SDS011;43226;51.110;6.998;2024-01-25T04:16:44;46.47;;;6.83;;
57401;SDS011;43226;51.110;6.998;2024-01-25T04:19:11;23.03;;;5.17;;
57401;SDS011;43226;51.110;6.998;2024-01-25T04:21:37;38.93;;;6.10;;
57401;SDS011;43226;51.110;6.998;2024-01-25T04:24:03;39.23;;;5.97;;
57401;SDS011;43226;51.110;6.998;2024-01-25T04:26:29;25.67;;;5.87;;
57401;SDS011;43226;51.110;6.998;2024-01-25T04:28:54;32.20;;;5.93;;
57401;SDS011;43226;51.110;6.998;2024-01-25T04:31:19;42.30;;;8.23;;
57401;SDS011;43226;51.110;6.998;2024-01-25T04:33:44;34.60;;;6.17;;
57401;SDS011;43226;51.110;6.998;2024-01-25T04:36:09;50.70;;;8.37;;
57401;SDS011;43226;51.110;6.998;2024-01-25T04:38:35;28.57;;;5.73;;
57401;SDS011;43226;51.110;6.998;2024-01-25T04:41:00;45.77;;;6.93;;
57401;SDS011;43226;51.110;6.998;2024-01-25T04:43:25;35.07;;;6.13;;
57401;SDS011;43226;51.110;6.998;2024-01-25T04:45:50;37.77;;;6.23;;
57401;SDS011;43226;51.110;6.998;2024-01-25T04:48:16;37.97;;;7.10;;
57401;SDS011;43226;51.110;6.998;2024-01-25T04:50:41;44.90;;;5.97;;
57401;SDS011;43226;51.110;6.998;2024-01-25T04:53:06;27.87;;;5.87;;
57401;SDS011;43226;51.110;6.998;2024-01-25T04:55:31;29.03;;;7.00;;
57401;SDS011;43226;51.110;6.998;2024-01-25T04:57:56;36.70;;;6.00;;
57401;SDS011;43226;51.110;6.998;2024-01-25T05:00:22;24.27;;;5.73;;
57401;SDS011;43226;51.110;6.998;2024-01-25T05:02:47;34.10;;;5.70;;
57401;SDS011;43226;51.110;6.998;2024-01-25T05:05:13;29.33;;;4.70;;
57401;SDS011;43226;51.110;6.998;2024-01-25T05:07:38;38.57;;;5.17;;
57401;SDS011;43226;51.110;6.998;2024-01-25T05:10:03;52.90;;;7.30;;
57401;SDS011;43226;51.110;6.998;2024-01-25T05:12:28;46.07;;;5.87;;
57401;SDS011;43226;51.110;6.998;2024-01-25T05:14:54;34.43;;;6.57;;
57401;SDS011;43226;51.110;6.998;2024-01-25T05:17:19;25.20;;;5.73;;
57401;SDS011;43226;51.110;6.998;2024-01-25T05:19:44;44.30;;;5.87;;
57401;SDS011;43226;51.110;6.998;2024-01-25T05:22:10;33.57;;;5.87;;
57401;SDS011;43226;51.110;6.998;2024-01-25T05:24:35;32.07;;;6.40;;
57401;SDS011;43226;51.110;6.998;2024-01-25T05:27:00;34.03;;;6.10;;
57401;SDS011;43226;51.110;6.998;2024-01-25T05:29:25;41.80;;;6.40;;
57401;SDS011;43226;51.110;6.998;2024-01-25T05:31:50;29.40;;;5.80;;
57401;SDS011;43226;51.110;6.998;2024-01-25T05:34:16;21.27;;;5.10;;
57401;SDS011;43226;51.110;6.998;2024-01-25T05:36:41;35.50;;;4.80;;
57401;SDS011;43226;51.110;6.998;2024-01-25T05:39:06;32.30;;;5.93;;
57401;SDS011;43226;51.110;6.998;2024-01-25T05:41:32;30.30;;;5.73;;
57401;SDS011;43226;51.110;6.998;2024-01-25T05:43:57;26.30;;;4.87;;
57401;SDS011;43226;51.110;6.998;2024-01-25T05:46:23;29.13;;;5.30;;
57401;SDS011;43226;51.110;6.998;2024-01-25T05:48:48;29.97;;;6.37;;
57401;SDS011;43226;51.110;6.998;2024-01-25T05:51:13;36.93;;;5.83;;
57401;SDS011;43226;51.110;6.998;2024-01-25T05:53:39;37.33;;;5.40;;
57401;SDS011;43226;51.110;6.998;2024-01-25T05:56:04;39.30;;;5.87;;
57401;SDS011;43226;51.110;6.998;2024-01-25T05:58:29;33.37;;;5.03;;
57401;SDS011;43226;51.110;6.998;2024-01-25T06:00:54;35.20;;;5.77;;
57401;SDS011;43226;51.110;6.998;2024-01-25T06:03:20;34.57;;;7.20;;
57401;SDS011;43226;51.110;6.998;2024-01-25T06:05:45;33.33;;;5.97;;
57401;SDS011;43226;51.110;6.998;2024-01-25T06:08:10;33.63;;;5.77;;
57401;SDS011;43226;51.110;6.998;2024-01-25T06:10:35;35.83;;;5.70;;
57401;SDS011;43226;51.110;6.998;2024-01-25T06:13:00;31.40;;;5.50;;
57401;SDS011;43226;51.110;6.998;2024-01-25T06:15:26;34.43;;;4.40;;
57401;SDS011;43226;51.110;6.998;2024-01-25T06:17:51;34.93;;;5.57;;
57401;SDS011;43226;51.110;6.998;2024-01-25T06:20:16;19.80;;;4.90;;
57401;SDS011;43226;51.110;6.998;2024-01-25T06:22:41;45.77;;;6.80;;
57401;SDS011;43226;51.110;6.998;2024-01-25T06:25:06;37.80;;;6.67;;
57401;SDS011;43226;51.110;6.998;2024-01-25T06:27:32;31.93;;;6.20;;
57401;SDS011;43226;51.110;6.998;2024-01-25T06:29:57;31.33;;;5.47;;
57401;SDS011;43226;51.110;6.998;2024-01-25T06:32:23;14.60;;;4.67;;
57401;SDS011;43226;51.110;6.998;2024-01-25T06:34:48;37.80;;;6.83;;
57401;SDS011;43226;51.110;6.998;2024-01-25T06:37:13;37.43;;;6.80;;
57401;SDS011;43226;51.110;6.998;2024-01-25T06:39:40;35.70;;;6.87;;
57401;SDS011;43226;51.110;6.998;2024-01-25T06:42:05;28.37;;;6.37;;
57401;SDS011;43226;51.110;6.998;2024-01-25T06:44:30;31.80;;;6.00;;
57401;SDS011;43226;51.110;6.998;2024-01-25T06:46:56;27.40;;;5.83;;
57401;SDS011;43226;51.110;6.998;2024-01-25T06:49:21;28.43;;;6.03;;
57401;SDS011;43226;51.110;6.998;2024-01-25T06:51:46;26.23;;;5.70;;
57401;SDS011;43226;51.110;6.998;2024-01-25T06:54:11;32.00;;;6.60;;
57401;SDS011;43226;51.110;6.998;2024-01-25T06:56:36;28.40;;;6.60;;
57401;SDS011;43226;51.110;6.998;2024-01-25T06:59:02;24.97;;;6.20;;
57401;SDS011;43226;51.110;6.998;2024-01-25T07:01:27;30.27;;;6.53;;
57401;SDS011;43226;51.110;6.998;2024-01-25T07:03:53;27.80;;;5.97;;
57401;SDS011;43226;51.110;6.998;2024-01-25T07:06:18;29.43;;;5.97;;
57401;SDS011;43226;51.110;6.998;2024-01-25T07:08:44;30.00;;;7.07;;
57401;SDS011;43226;51.110;6.998;2024-01-25T07:11:09;24.83;;;5.47;;
57401;SDS011;43226;51.110;6.998;2024-01-25T07:13:35;22.50;;;6.23;;
57401;SDS011;43226;51.110;6.998;2024-01-25T07:16:00;26.30;;;5.73;;
57401;SDS011;43226;51.110;6.998;2024-01-25T07:18:25;25.90;;;5.63;;
57401;SDS011;43226;51.110;6.998;2024-01-25T07:20:50;27.43;;;5.80;;
57401;SDS011;43226;51.110;6.998;2024-01-25T07:23:16;29.30;;;5.90;;
57401;SDS011;43226;51.110;6.998;2024-01-25T07:25:42;26.00;;;7.03;;
57401;SDS011;43226;51.110;6.998;2024-01-25T07:28:07;22.07;;;6.63;;
57401;SDS011;43226;51.110;6.998;2024-01-25T07:30:32;36.57;;;6.47;;
57401;SDS011;43226;51.110;6.998;2024-01-25T07:32:57;21.17;;;5.40;;
57401;SDS011;43226;51.110;6.998;2024-01-25T07:35:23;30.50;;;5.80;;
57401;SDS011;43226;51.110;6.998;2024-01-25T07:37:48;31.80;;;5.83;;
57401;SDS011;43226;51.110;6.998;2024-01-25T07:40:14;29.00;;;7.40;;
57401;SDS011;43226;51.110;6.998;2024-01-25T07:42:39;34.83;;;6.83;;
57401;SDS011;43226;51.110;6.998;2024-01-25T07:45:04;47.87;;;6.70;;
57401;SDS011;43226;51.110;6.998;2024-01-25T07:47:30;33.87;;;6.63;;
57401;SDS011;43226;51.110;6.998;2024-01-25T07:49:55;18.00;;;4.97;;
57401;SDS011;43226;51.110;6.998;2024-01-25T07:52:20;16.23;;;5.73;;
57401;SDS011;43226;51.110;6.998;2024-01-25T07:54:45;32.17;;;6.60;;
57401;SDS011;43226;51.110;6.998;2024-01-25T07:57:10;27.43;;;5.90;;
57401;SDS011;43226;51.110;6.998;2024-01-25T07:59:36;31.43;;;5.13;;
57401;SDS011;43226;51.110;6.998;2024-01-25T08:02:01;24.27;;;7.00;;
57401;SDS011;43226;51.110;6.998;2024-01-25T08:04:26;21.17;;;6.30;;
57401;SDS011;43226;51.110;6.998;2024-01-25T08:06:51;19.40;;;5.90;;
57401;SDS011;43226;51.110;6.998;2024-01-25T08:09:17;23.13;;;5.60;;
57401;SDS011;43226;51.110;6.998;2024-01-25T08:11:42;20.80;;;6.30;;
57401;SDS011;43226;51.110;6.998;2024-01-25T08:14:07;28.33;;;5.63;;
57401;SDS011;43226;51.110;6.998;2024-01-25T08:16:32;13.90;;;5.70;;
57401;SDS011;43226;51.110;6.998;2024-01-25T08:19:00;20.97;;;5.30;;
57401;SDS011;43226;51.110;6.998;2024-01-25T08:21:25;24.40;;;6.53;;
57401;SDS011;43226;51.110;6.998;2024-01-25T08:23:50;15.60;;;5.57;;
57401;SDS011;43226;51.110;6.998;2024-01-25T08:26:15;23.27;;;6.40;;
57401;SDS011;43226;51.110;6.998;2024-01-25T08:28:41;27.97;;;6.33;;
57401;SDS011;43226;51.110;6.998;2024-01-25T08:31:08;21.43;;;7.30;;
57401;SDS011;43226;51.110;6.998;2024-01-25T08:33:33;29.37;;;6.50;;
57401;SDS011;43226;51.110;6.998;2024-01-25T08:35:58;17.93;;;5.33;;
57401;SDS011;43226;51.110;6.998;2024-01-25T08:38:23;23.97;;;6.17;;
57401;SDS011;43226;51.110;6.998;2024-01-25T08:40:48;21.93;;;6.37;;
57401;SDS011;43226;51.110;6.998;2024-01-25T08:43:14;25.80;;;5.80;;
57401;SDS011;43226;51.110;6.998;2024-01-25T08:45:39;17.30;;;5.20;;
57401;SDS011;43226;51.110;6.998;2024-01-25T08:48:04;37.00;;;8.30;;
57401;SDS011;43226;51.110;6.998;2024-01-25T08:50:30;27.40;;;6.40;;
57401;SDS011;43226;51.110;6.998;2024-01-25T08:52:55;24.60;;;5.53;;
57401;SDS011;43226;51.110;6.998;2024-01-25T08:55:20;24.83;;;6.00;;
57401;SDS011;43226;51.110;6.998;2024-01-25T08:57:45;16.37;;;4.90;;
57401;SDS011;43226;51.110;6.998;2024-01-25T09:00:11;16.20;;;5.63;;
57401;SDS011;43226;51.110;6.998;2024-01-25T09:02:37;21.13;;;6.07;;
57401;SDS011;43226;51.110;6.998;2024-01-25T09:05:03;19.90;;;6.97;;
57401;SDS011;43226;51.110;6.998;2024-01-25T09:07:29;25.10;;;6.87;;
57401;SDS011;43226;51.110;6.998;2024-01-25T09:09:54;27.73;;;6.50;;
57401;SDS011;43226;51.110;6.998;2024-01-25T09:12:19;21.83;;;6.97;;
57401;SDS011;43226;51.110;6.998;2024-01-25T09:14:44;29.93;;;5.40;;
57401;SDS011;43226;51.110;6.998;2024-01-25T09:17:09;25.47;;;6.37;;
57401;SDS011;43226;51.110;6.998;2024-01-25T09:19:35;22.33;;;5.97;;
57401;SDS011;43226;51.110;6.998;2024-01-25T09:22:00;12.70;;;5.70;;
57401;SDS011;43226;51.110;6.998;2024-01-25T09:24:29;25.67;;;7.00;;
57401;SDS011;43226;51.110;6.998;2024-01-25T09:26:54;32.37;;;9.60;;
57401;SDS011;43226;51.110;6.998;2024-01-25T09:29:20;20.80;;;9.13;;
57401;SDS011;43226;51.110;6.998;2024-01-25T09:31:46;36.90;;;10.60;;
57401;SDS011;43226;51.110;6.998;2024-01-25T09:34:11;36.80;;;9.33;;
57401;SDS011;43226;51.110;6.998;2024-01-25T09:36:36;36.87;;;11.97;;
57401;SDS011;43226;51.110;6.998;2024-01-25T09:39:01;30.40;;;10.97;;
57401;SDS011;43226;51.110;6.998;2024-01-25T09:41:27;27.13;;;9.67;;
57401;SDS011;43226;51.110;6.998;2024-01-25T09:43:52;38.27;;;10.30;;
57401;SDS011;43226;51.110;6.998;2024-01-25T09:46:17;33.43;;;9.10;;
57401;SDS011;43226;51.110;6.998;2024-01-25T09:48:43;31.60;;;9.63;;
57401;SDS011;43226;51.110;6.998;2024-01-25T09:51:11;25.30;;;7.67;;
57401;SDS011;43226;51.110;6.998;2024-01-25T09:53:36;27.50;;;7.20;;
57401;SDS011;43226;51.110;6.998;2024-01-25T09:56:05;30.93;;;8.47;;
57401;SDS011;43226;51.110;6.998;2024-01-25T09:58:39;32.53;;;7.43;;
57401;SDS011;43226;51.110;6.998;2024-01-25T10:01:07;28.83;;;8.40;;
57401;SDS011;43226;51.110;6.998;2024-01-25T10:03:32;33.97;;;9.07;;
57401;SDS011;43226;51.110;6.998;2024-01-25T10:06:00;19.07;;;6.93;;
57401;SDS011;43226;51.110;6.998;2024-01-25T10:08:25;30.87;;;7.90;;
57401;SDS011;43226;51.110;6.998;2024-01-25T10:10:50;34.73;;;10.60;;
57401;SDS011;43226;51.110;6.998;2024-01-25T10:13:18;34.70;;;9.00;;
57401;SDS011;43226;51.110;6.998;2024-01-25T10:15:44;32.73;;;9.60;;
57401;SDS011;43226;51.110;6.998;2024-01-25T10:18:11;45.20;;;9.80;;
57401;SDS011;43226;51.110;6.998;2024-01-25T10:20:41;37.27;;;8.37;;
57401;SDS011;43226;51.110;6.998;2024-01-25T10:23:07;34.00;;;10.80;;
57401;SDS011;43226;51.110;6.998;2024-01-25T10:25:38;42.27;;;7.93;;
57401;SDS011;43226;51.110;6.998;2024-01-25T10:28:06;30.63;;;8.27;;
57401;SDS011;43226;51.110;6.998;2024-01-25T10:30:33;47.13;;;9.07;;
57401;SDS011;43226;51.110;6.998;2024-01-25T10:32:58;38.87;;;9.60;;
57401;SDS011;43226;51.110;6.998;2024-01-25T10:35:23;47.03;;;9.73;;
57401;SDS011;43226;51.110;6.998;2024-01-25T10:37:49;31.20;;;8.87;;
57401;SDS011;43226;51.110;6.998;2024-01-25T10:40:15;58.40;;;10.30;;
57401;SDS011;43226;51.110;6.998;2024-01-25T10:42:42;36.30;;;9.00;;
57401;SDS011;43226;51.110;6.998;2024-01-25T10:45:07;37.77;;;8.43;;
57401;SDS011;43226;51.110;6.998;2024-01-25T10:47:32;33.77;;;8.87;;
57401;SDS011;43226;51.110;6.998;2024-01-25T10:50:00;39.37;;;10.50;;
57401;SDS011;43226;51.110;6.998;2024-01-25T10:52:25;36.40;;;11.17;;
57401;SDS011;43226;51.110;6.998;2024-01-25T10:54:51;32.57;;;8.67;;
57401;SDS011;43226;51.110;6.998;2024-01-25T10:57:17;29.87;;;9.30;;
57401;SDS011;43226;51.110;6.998;2024-01-25T10:59:42;26.37;;;9.60;;
57401;SDS011;43226;51.110;6.998;2024-01-25T11:02:07;29.10;;;10.20;;
57401;SDS011;43226;51.110;6.998;2024-01-25T11:04:34;32.63;;;10.30;;
57401;SDS011;43226;51.110;6.998;2024-01-25T11:07:06;29.50;;;9.83;;
57401;SDS011;43226;51.110;6.998;2024-01-25T11:09:31;27.10;;;9.83;;
57401;SDS011;43226;51.110;6.998;2024-01-25T11:11:58;26.27;;;10.77;;
57401;SDS011;43226;51.110;6.998;2024-01-25T11:14:24;35.17;;;9.10;;
57401;SDS011;43226;51.110;6.998;2024-01-25T11:16:50;34.73;;;11.23;;
57401;SDS011;43226;51.110;6.998;2024-01-25T11:19:19;28.27;;;11.27;;
57401;SDS011;43226;51.110;6.998;2024-01-25T11:21:45;32.33;;;10.77;;
57401;SDS011;43226;51.110;6.998;2024-01-25T11:24:17;42.63;;;13.17;;
57401;SDS011;43226;51.110;6.998;2024-01-25T11:26:42;41.33;;;12.10;;
57401;SDS011;43226;51.110;6.998;2024-01-25T11:29:08;37.63;;;11.67;;
57401;SDS011;43226;51.110;6.998;2024-01-25T11:31:33;43.43;;;12.10;;
57401;SDS011;43226;51.110;6.998;2024-01-25T11:33:59;39.20;;;10.80;;
57401;SDS011;43226;51.110;6.998;2024-01-25T11:36:25;41.47;;;12.00;;
57401;SDS011;43226;51.110;6.998;2024-01-25T11:38:50;45.13;;;13.63;;
57401;SDS011;43226;51.110;6.998;2024-01-25T11:41:15;35.77;;;11.80;;
57401;SDS011;43226;51.110;6.998;2024-01-25T11:43:41;34.63;;;12.00;;
57401;SDS011;43226;51.110;6.998;2024-01-25T11:46:06;34.70;;;10.80;;
57401;SDS011;43226;51.110;6.998;2024-01-25T11:48:32;46.90;;;12.90;;
57401;SDS011;43226;51.110;6.998;2024-01-25T11:50:58;33.50;;;9.23;;
57401;SDS011;43226;51.110;6.998;2024-01-25T11:53:23;39.13;;;10.27;;
57401;SDS011;43226;51.110;6.998;2024-01-25T11:55:49;37.17;;;9.33;;
57401;SDS011;43226;51.110;6.998;2024-01-25T11:58:15;32.97;;;11.07;;
57401;SDS011;43226;51.110;6.998;2024-01-25T12:00:40;38.67;;;10.70;;
57401;SDS011;43226;51.110;6.998;2024-01-25T12:03:05;32.67;;;9.07;;
57401;SDS011;43226;51.110;6.998;2024-01-25T12:05:30;52.20;;;12.00;;
57401;SDS011;43226;51.110;6.998;2024-01-25T12:07:56;39.03;;;11.10;;
57401;SDS011;43226;51.110;6.998;2024-01-25T12:10:21;34.10;;;10.80;;
57401;SDS011;43226;51.110;6.998;2024-01-25T12:12:48;45.87;;;11.73;;
57401;SDS011;43226;51.110;6.998;2024-01-25T12:15:13;39.63;;;11.03;;
57401;SDS011;43226;51.110;6.998;2024-01-25T12:17:38;37.60;;;10.93;;
57401;SDS011;43226;51.110;6.998;2024-01-25T12:20:05;41.57;;;10.90;;
57401;SDS011;43226;51.110;6.998;2024-01-25T12:22:35;45.10;;;10.63;;
57401;SDS011;43226;51.110;6.998;2024-01-25T12:25:00;42.97;;;9.97;;
57401;SDS011;43226;51.110;6.998;2024-01-25T12:27:26;45.05;;;11.13;;
57401;SDS011;43226;51.110;6.998;2024-01-25T12:29:52;43.83;;;11.67;;
57401;SDS011;43226;51.110;6.998;2024-01-25T12:32:18;42.37;;;9.50;;
57401;SDS011;43226;51.110;6.998;2024-01-25T12:34:53;40.03;;;9.57;;
57401;SDS011;43226;51.110;6.998;2024-01-25T12:37:18;34.63;;;10.50;;
57401;SDS011;43226;51.110;6.998;2024-01-25T12:39:43;32.03;;;9.60;;
57401;SDS011;43226;51.110;6.998;2024-01-25T12:42:09;38.28;;;9.85;;
57401;SDS011;43226;51.110;6.998;2024-01-25T12:44:34;43.40;;;10.37;;
57401;SDS011;43226;51.110;6.998;2024-01-25T12:46:59;31.17;;;8.70;;
57401;SDS011;43226;51.110;6.998;2024-01-25T12:49:26;32.63;;;8.63;;
57401;SDS011;43226;51.110;6.998;2024-01-25T12:51:51;42.13;;;8.67;;
57401;SDS011;43226;51.110;6.998;2024-01-25T12:54:16;29.60;;;8.13;;
57401;SDS011;43226;51.110;6.998;2024-01-25T12:56:41;32.30;;;8.97;;
57401;SDS011;43226;51.110;6.998;2024-01-25T12:59:07;28.97;;;7.93;;
57401;SDS011;43226;51.110;6.998;2024-01-25T13:01:33;45.47;;;7.43;;
57401;SDS011;43226;51.110;6.998;2024-01-25T13:03:59;40.10;;;10.97;;
57401;SDS011;43226;51.110;6.998;2024-01-25T13:06:24;45.20;;;9.10;;
57401;SDS011;43226;51.110;6.998;2024-01-25T13:08:49;34.83;;;8.10;;
57401;SDS011;43226;51.110;6.998;2024-01-25T13:11:14;44.87;;;7.37;;
57401;SDS011;43226;51.110;6.998;2024-01-25T13:13:39;32.30;;;7.27;;
57401;SDS011;43226;51.110;6.998;2024-01-25T13:16:05;25.97;;;7.30;;
57401;SDS011;43226;51.110;6.998;2024-01-25T13:18:30;26.57;;;7.10;;
57401;SDS011;43226;51.110;6.998;2024-01-25T13:20:55;34.50;;;8.17;;
57401;SDS011;43226;51.110;6.998;2024-01-25T13:23:21;36.87;;;8.87;;
57401;SDS011;43226;51.110;6.998;2024-01-25T13:25:46;29.17;;;9.10;;
57401;SDS011;43226;51.110;6.998;2024-01-25T13:28:11;27.27;;;7.03;;
57401;SDS011;43226;51.110;6.998;2024-01-25T13:30:36;38.07;;;8.83;;
57401;SDS011;43226;51.110;6.998;2024-01-25T13:33:01;40.40;;;7.77;;
57401;SDS011;43226;51.110;6.998;2024-01-25T13:35:27;31.80;;;8.20;;
57401;SDS011;43226;51.110;6.998;2024-01-25T13:37:52;26.53;;;7.10;;
57401;SDS011;43226;51.110;6.998;2024-01-25T13:40:17;21.80;;;8.00;;
57401;SDS011;43226;51.110;6.998;2024-01-25T13:42:42;20.57;;;6.93;;
57401;SDS011;43226;51.110;6.998;2024-01-25T13:45:09;34.60;;;7.20;;
57401;SDS011;43226;51.110;6.998;2024-01-25T13:47:34;42.53;;;7.83;;
57401;SDS011;43226;51.110;6.998;2024-01-25T13:49:59;37.63;;;6.20;;
57401;SDS011;43226;51.110;6.998;2024-01-25T13:52:24;31.00;;;8.43;;
57401;SDS011;43226;51.110;6.998;2024-01-25T13:54:49;26.47;;;6.50;;
57401;SDS011;43226;51.110;6.998;2024-01-25T13:57:15;34.80;;;8.03;;
57401;SDS011;43226;51.110;6.998;2024-01-25T13:59:40;45.63;;;10.70;;
57401;SDS011;43226;51.110;6.998;2024-01-25T14:02:05;28.47;;;8.23;;
57401;SDS011;43226;51.110;6.998;2024-01-25T14:04:30;34.10;;;6.83;;
57401;SDS011;43226;51.110;6.998;2024-01-25T14:06:56;34.93;;;6.73;;
57401;SDS011;43226;51.110;6.998;2024-01-25T14:09:21;25.10;;;6.60;;
57401;SDS011;43226;51.110;6.998;2024-01-25T14:11:46;28.33;;;7.47;;
57401;SDS011;43226;51.110;6.998;2024-01-25T14:14:11;40.37;;;7.07;;
57401;SDS011;43226;51.110;6.998;2024-01-25T14:16:36;26.70;;;7.70;;
57401;SDS011;43226;51.110;6.998;2024-01-25T14:19:02;33.50;;;6.30;;
57401;SDS011;43226;51.110;6.998;2024-01-25T14:21:28;33.73;;;6.27;;
57401;SDS011;43226;51.110;6.998;2024-01-25T14:23:53;26.80;;;6.97;;
57401;SDS011;43226;51.110;6.998;2024-01-25T14:26:18;28.20;;;5.30;;